createdAt,value
2023-08-09T00:03:51.819Z,13.40
2023-08-09T00:08:45.425Z,13.40
2023-08-09T00:13:38.892Z,13.30
2023-08-09T00:18:31.742Z,13.30
2023-08-09T00:23:25.552Z,13.40
2023-08-09T00:28:18.423Z,13.40
2023-08-09T00:33:14.378Z,13.40
2023-08-09T00:38:07.289Z,13.50
2023-08-09T00:43:01.158Z,13.50
2023-08-09T00:47:53.989Z,13.60
2023-08-09T00:52:47.677Z,13.70
2023-08-09T00:57:38.774Z,13.60
2023-08-09T01:02:32.060Z,13.70
2023-08-09T01:07:24.983Z,13.60
2023-08-09T01:12:20.912Z,13.50
2023-08-09T01:17:14.316Z,13.60
2023-08-09T01:22:07.765Z,13.80
2023-08-09T01:27:00.629Z,13.80
2023-08-09T01:31:56.504Z,13.60
2023-08-09T01:36:47.533Z,13.40
2023-08-09T01:41:40.843Z,13.30
2023-08-09T01:46:33.870Z,13.20
2023-08-09T01:51:27.623Z,13.10
2023-08-09T01:56:23.268Z,12.90
2023-08-09T02:01:14.121Z,12.80
2023-08-09T02:06:07.076Z,12.70
2023-08-09T02:11:00.719Z,12.50
2023-08-09T02:15:54.130Z,12.50
2023-08-09T02:20:47.388Z,12.40
2023-08-09T02:25:40.359Z,12.40
2023-08-09T02:30:34.029Z,12.30
2023-08-09T02:35:27.379Z,12.20
2023-08-09T02:40:18.454Z,12.20
2023-08-09T02:45:11.381Z,12.20
2023-08-09T02:50:05.066Z,12.20
2023-08-09T02:54:58.394Z,12.10
2023-08-09T02:59:51.885Z,12.10
2023-08-09T03:04:46.939Z,12.20
2023-08-09T03:09:40.635Z,12.30
2023-08-09T03:14:31.363Z,12.40
2023-08-09T03:19:24.946Z,12.40
2023-08-09T03:24:17.959Z,12.50
2023-08-09T03:29:11.649Z,12.40
2023-08-09T03:34:14.116Z,12.40
2023-08-09T03:39:09.208Z,12.40
2023-08-09T03:44:09.833Z,12.40
2023-08-09T03:49:02.630Z,12.40
2023-08-09T03:53:54.100Z,12.50
2023-08-09T03:58:47.007Z,12.50
2023-08-09T04:03:38.543Z,12.50
2023-08-09T04:08:33.646Z,12.60
2023-08-09T04:13:27.325Z,12.70
2023-08-09T04:18:24.792Z,12.70
2023-08-09T04:23:16.258Z,12.50
2023-08-09T04:28:09.789Z,12.60
2023-08-09T04:33:05.192Z,12.70
2023-08-09T04:37:58.065Z,12.80
2023-08-09T04:42:56.282Z,12.90
2023-08-09T04:47:49.241Z,13.00
2023-08-09T04:52:42.881Z,13.10
2023-08-09T04:57:38.280Z,13.20
2023-08-09T05:00:10.950Z,13.20
2023-08-09T05:05:24.590Z,13.40
2023-08-09T05:10:29.219Z,13.30
2023-08-09T05:15:24.432Z,13.50
2023-08-09T05:20:18.099Z,13.40
2023-08-09T05:25:11.568Z,13.70
2023-08-09T05:30:04.444Z,13.80
2023-08-09T05:34:55.863Z,13.80
2023-08-09T05:39:48.815Z,13.70
2023-08-09T05:44:42.137Z,13.90
2023-08-09T05:49:35.762Z,14.00
2023-08-09T05:54:29.100Z,14.30
2023-08-09T05:59:26.606Z,14.50
2023-08-09T06:04:19.931Z,14.70
2023-08-09T06:09:15.868Z,14.60
2023-08-09T06:14:09.296Z,14.50
2023-08-09T06:19:06.673Z,14.80
2023-08-09T06:24:00.370Z,15.10
2023-08-09T06:28:53.626Z,15.30
2023-08-09T06:33:51.231Z,15.20
2023-08-09T06:36:22.090Z,15.10
2023-08-09T06:41:17.751Z,15.60
2023-08-09T06:46:10.838Z,15.60
2023-08-09T06:51:03.845Z,15.60
2023-08-09T06:55:55.071Z,15.60
2023-08-09T07:00:48.818Z,15.70
2023-08-09T07:05:42.071Z,15.60
2023-08-09T07:10:44.373Z,15.80
2023-08-09T07:15:37.376Z,16.40
2023-08-09T07:20:35.595Z,17.00
2023-08-09T07:25:28.795Z,17.40
2023-08-09T07:30:22.435Z,17.30
2023-08-09T07:35:13.196Z,16.60
2023-08-09T07:40:06.684Z,16.70
2023-08-09T07:44:57.770Z,16.70
2023-08-09T07:49:51.260Z,16.70
2023-08-09T07:54:44.257Z,17.00
2023-08-09T07:59:37.913Z,16.70
2023-08-09T08:04:30.898Z,16.40
2023-08-09T08:09:24.759Z,16.30
2023-08-09T08:14:17.868Z,16.10
2023-08-09T08:19:11.447Z,16.60
2023-08-09T08:24:04.201Z,16.50
2023-08-09T08:28:57.732Z,16.50
2023-08-09T08:33:51.084Z,16.90
2023-08-09T08:38:44.651Z,17.00
2023-08-09T08:43:42.698Z,17.50
2023-08-09T08:48:36.002Z,17.80
2023-08-09T08:53:26.636Z,17.80
2023-08-09T08:58:20.337Z,17.80
2023-08-09T09:03:13.662Z,18.10
2023-08-09T09:08:06.935Z,18.00
2023-08-09T09:13:00.090Z,17.50
2023-08-09T09:17:51.333Z,17.40
2023-08-09T09:22:44.676Z,18.40
2023-08-09T09:27:37.927Z,19.20
2023-08-09T09:32:30.970Z,19.50
2023-08-09T09:37:24.624Z,18.90
2023-08-09T09:42:20.367Z,18.90
2023-08-09T09:47:15.832Z,19.00
2023-08-09T09:52:08.754Z,18.90
2023-08-09T09:57:00.498Z,19.50
2023-08-09T10:01:53.600Z,19.20
2023-08-09T10:06:46.784Z,19.90
2023-08-09T10:11:42.050Z,20.00
2023-08-09T10:16:35.691Z,20.20
2023-08-09T10:21:31.337Z,20.80
2023-08-09T10:26:24.672Z,20.60
2023-08-09T10:31:16.172Z,20.50
2023-08-09T10:36:06.765Z,20.90
2023-08-09T10:41:00.222Z,20.90
2023-08-09T10:45:53.598Z,21.20
2023-08-09T10:50:50.310Z,21.10
2023-08-09T10:55:40.284Z,21.40
2023-08-09T11:00:31.159Z,21.30
2023-08-09T11:05:24.456Z,20.20
2023-08-09T11:10:17.793Z,19.90
2023-08-09T11:15:11.046Z,19.70
2023-08-09T11:20:04.634Z,20.20
2023-08-09T11:24:57.733Z,20.90
2023-08-09T11:26:41.307Z,20.90
2023-08-09T11:31:41.801Z,21.10
2023-08-09T11:36:39.609Z,21.40
2023-08-09T11:41:46.143Z,21.40
2023-08-09T11:47:44.656Z,21.40
2023-08-09T11:52:54.769Z,21.90
2023-08-09T11:57:47.500Z,21.50
2023-08-09T12:02:43.571Z,21.50
2023-08-09T12:07:43.686Z,21.10
2023-08-09T12:12:43.862Z,21.60
2023-08-09T12:17:34.370Z,21.70
2023-08-09T12:22:34.902Z,21.10
2023-08-09T12:27:32.262Z,21.70
2023-08-09T12:32:35.033Z,22.10
2023-08-09T12:38:32.816Z,22.40
2023-08-09T12:43:30.623Z,22.30
2023-08-09T12:48:30.754Z,22.20
2023-08-09T12:53:32.173Z,22.50
2023-08-09T12:58:21.909Z,22.60
